createdAt,value
2023-02-09T00:01:41.605Z,62.69
2023-02-09T00:04:03.243Z,63.83
2023-02-09T00:06:26.366Z,63.49
2023-02-09T00:08:48.082Z,64.02
2023-02-09T00:11:13.222Z,62.64
2023-02-09T00:13:35.919Z,62.19
2023-02-09T00:16:01.904Z,61.16
2023-02-09T00:18:25.467Z,61.51
2023-02-09T00:21:13.057Z,61.86
2023-02-09T00:23:40.827Z,62.15
2023-02-09T00:26:05.540Z,62.68
2023-02-09T00:28:27.610Z,61.65
2023-02-09T00:30:49.375Z,60.93
2023-02-09T00:33:10.918Z,60.71
2023-02-09T00:35:32.337Z,61.27
2023-02-09T00:37:53.764Z,61.65
2023-02-09T00:40:15.251Z,62.51
2023-02-09T00:42:36.670Z,62.41
2023-02-09T00:44:58.103Z,62.36
2023-02-09T00:47:19.510Z,61.89
2023-02-09T00:49:41.192Z,62.00
2023-02-09T00:52:02.807Z,62.01
2023-02-09T00:54:24.742Z,62.32
2023-02-09T00:56:46.225Z,61.84
2023-02-09T00:59:07.684Z,62.55
2023-02-09T01:01:29.203Z,62.98
2023-02-09T01:03:50.679Z,64.12
2023-02-09T01:06:12.174Z,63.55
2023-02-09T01:08:34.473Z,63.08
2023-02-09T01:10:55.906Z,63.55
2023-02-09T01:13:17.370Z,63.30
2023-02-09T01:15:40.532Z,63.65
2023-02-09T01:18:02.051Z,62.88
2023-02-09T01:20:23.653Z,63.28
2023-02-09T01:22:45.065Z,63.50
2023-02-09T01:25:07.457Z,63.60
2023-02-09T01:27:28.892Z,64.21
2023-02-09T01:29:50.363Z,64.51
2023-02-09T01:32:11.939Z,64.25
2023-02-09T01:34:33.554Z,63.81
2023-02-09T01:36:54.992Z,63.62
2023-02-09T01:39:16.830Z,63.06
2023-02-09T01:41:39.061Z,63.27
2023-02-09T01:44:07.012Z,63.26
2023-02-09T01:46:30.921Z,63.03
2023-02-09T01:48:59.492Z,62.61
2023-02-09T01:51:21.283Z,63.17
2023-02-09T01:53:44.469Z,62.74
2023-02-09T01:56:14.631Z,62.17
2023-02-09T01:58:36.268Z,62.81
2023-02-09T02:00:59.958Z,62.92
2023-02-09T02:03:25.638Z,63.18
2023-02-09T02:05:50.647Z,63.29
2023-02-09T02:08:19.522Z,62.00
2023-02-09T02:10:40.988Z,62.10
2023-02-09T02:13:03.167Z,62.08
2023-02-09T02:15:29.025Z,62.77
2023-02-09T02:18:42.674Z,63.73
2023-02-09T02:21:07.142Z,63.70
2023-02-09T02:24:06.433Z,64.68
2023-02-09T02:26:45.496Z,64.62
2023-02-09T02:29:22.909Z,64.42
2023-02-09T02:31:53.457Z,64.72
2023-02-09T02:34:36.248Z,63.79
2023-02-09T02:37:20.458Z,63.49
2023-02-09T02:39:50.826Z,63.07
2023-02-09T02:42:45.486Z,63.37
2023-02-09T02:45:19.798Z,63.97
2023-02-09T02:47:49.385Z,64.45
2023-02-09T02:50:15.868Z,63.94
2023-02-09T02:52:39.859Z,64.52
2023-02-09T02:55:08.313Z,66.27
2023-02-09T02:57:33.647Z,66.45
2023-02-09T03:00:01.077Z,65.85
2023-02-09T03:02:30.953Z,66.19
2023-02-09T03:04:56.287Z,65.47
2023-02-09T03:07:18.678Z,65.87
2023-02-09T03:09:49.028Z,65.01
2023-02-09T03:12:24.387Z,64.80
2023-02-09T03:15:10.434Z,63.90
2023-02-09T03:17:46.717Z,63.10
2023-02-09T03:20:16.961Z,63.53
2023-02-09T03:22:43.148Z,63.57
2023-02-09T03:25:30.851Z,63.42
2023-02-09T03:27:57.829Z,64.24
2023-02-09T03:30:21.795Z,64.05
2023-02-09T03:32:46.716Z,63.58
2023-02-09T03:35:11.461Z,63.72
2023-02-09T03:37:32.900Z,64.04
2023-02-09T03:39:54.364Z,63.39
2023-02-09T03:42:15.829Z,63.96
2023-02-09T03:44:37.332Z,63.92
2023-02-09T03:47:01.765Z,64.31
2023-02-09T03:49:25.262Z,64.79
2023-02-09T03:51:46.717Z,65.98
2023-02-09T03:54:08.332Z,65.59
2023-02-09T03:56:29.765Z,65.68
2023-02-09T03:58:52.129Z,65.33
2023-02-09T04:01:13.632Z,65.32
2023-02-09T04:03:35.728Z,64.87
2023-02-09T04:05:57.215Z,65.54
2023-02-09T04:08:18.788Z,65.63
2023-02-09T04:10:40.219Z,65.68
2023-02-09T04:13:01.688Z,65.54
2023-02-09T04:15:23.107Z,65.76
2023-02-09T04:17:44.579Z,65.38
2023-02-09T04:20:06.301Z,65.20
2023-02-09T04:22:27.743Z,64.84
2023-02-09T04:24:49.163Z,65.02
2023-02-09T04:27:11.843Z,65.49
2023-02-09T04:29:33.301Z,65.18
2023-02-09T04:31:54.792Z,65.97
2023-02-09T04:34:16.357Z,65.17
2023-02-09T04:36:37.876Z,64.71
2023-02-09T04:38:59.279Z,64.10
2023-02-09T04:41:20.739Z,63.48
2023-02-09T04:43:42.393Z,63.48
2023-02-09T04:46:03.983Z,63.09
2023-02-09T04:48:28.278Z,62.24
2023-02-09T04:50:50.080Z,61.99
2023-02-09T04:53:11.998Z,62.58
2023-02-09T04:55:33.420Z,62.06
2023-02-09T04:58:13.223Z,62.85
2023-02-09T05:00:35.218Z,63.22
2023-02-09T05:02:56.719Z,63.23
2023-02-09T05:05:19.706Z,63.31
2023-02-09T05:07:41.236Z,64.31
2023-02-09T05:10:03.797Z,63.65
2023-02-09T05:12:25.250Z,64.47
2023-02-09T05:14:46.724Z,63.82
2023-02-09T05:17:08.153Z,63.93
2023-02-09T05:19:29.626Z,63.61
2023-02-09T05:21:51.058Z,63.18
2023-02-09T05:24:12.558Z,64.01
2023-02-09T05:26:34.049Z,63.85
2023-02-09T05:28:55.488Z,64.66
2023-02-09T05:31:17.979Z,64.83
2023-02-09T05:33:39.658Z,64.52
2023-02-09T05:36:01.257Z,64.22
2023-02-09T05:38:23.131Z,65.21
2023-02-09T05:40:45.424Z,65.95
2023-02-09T05:43:06.930Z,67.33
2023-02-09T05:45:28.364Z,67.16
2023-02-09T05:47:49.804Z,67.80
2023-02-09T05:50:11.225Z,67.31
2023-02-09T05:52:32.820Z,66.96
2023-02-09T05:54:54.241Z,66.90
2023-02-09T05:57:16.511Z,67.92
2023-02-09T05:59:38.047Z,68.35
2023-02-09T06:02:00.566Z,67.74
2023-02-09T06:04:22.455Z,68.57
2023-02-09T06:06:44.214Z,68.12
2023-02-09T06:09:05.938Z,67.75
2023-02-09T06:11:27.821Z,68.37
2023-02-09T06:13:49.443Z,69.49
2023-02-09T06:16:11.369Z,68.34
2023-02-09T06:18:32.847Z,68.17
2023-02-09T06:20:54.382Z,67.62
2023-02-09T06:23:15.849Z,67.32
2023-02-09T06:25:39.778Z,66.51
2023-02-09T06:28:01.669Z,66.63
2023-02-09T06:30:23.152Z,66.35
2023-02-09T06:32:44.612Z,67.30
2023-02-09T06:35:06.280Z,68.32
2023-02-09T06:37:27.718Z,68.95
2023-02-09T06:39:49.166Z,68.74
2023-02-09T06:42:10.604Z,68.13
2023-02-09T06:44:32.061Z,68.31
2023-02-09T06:46:53.491Z,68.11
2023-02-09T06:49:14.945Z,67.10
2023-02-09T06:51:36.530Z,67.08
2023-02-09T06:53:58.160Z,66.73
2023-02-09T06:56:20.354Z,66.84
2023-02-09T06:58:42.018Z,65.75
2023-02-09T07:01:09.856Z,65.46
2023-02-09T07:03:31.425Z,64.62
2023-02-09T07:05:52.938Z,64.69
2023-02-09T07:08:14.536Z,64.97
2023-02-09T07:10:36.169Z,64.88
2023-02-09T07:12:58.445Z,64.73
2023-02-09T07:15:19.913Z,64.69
2023-02-09T07:17:42.314Z,64.61
2023-02-09T07:20:04.689Z,65.87
2023-02-09T07:22:26.108Z,66.66
2023-02-09T07:24:47.557Z,66.46
2023-02-09T07:27:08.979Z,65.75
2023-02-09T07:29:31.699Z,64.58
2023-02-09T07:31:53.165Z,65.03
2023-02-09T07:34:16.789Z,65.50
2023-02-09T07:36:38.296Z,64.64
2023-02-09T07:39:00.053Z,64.65
2023-02-09T07:41:25.229Z,64.62
2023-02-09T07:43:47.705Z,63.34
2023-02-09T07:46:10.140Z,64.72
2023-02-09T07:48:32.488Z,64.85
2023-02-09T07:50:54.050Z,64.77
2023-02-09T07:53:15.514Z,64.12
2023-02-09T07:55:39.462Z,63.70
2023-02-09T07:58:00.948Z,63.91
2023-02-09T08:00:22.590Z,64.49
2023-02-09T08:02:45.396Z,65.17
2023-02-09T08:05:14.356Z,65.55
2023-02-09T08:07:35.844Z,65.20
2023-02-09T08:09:57.680Z,65.45
2023-02-09T08:12:20.781Z,64.77
2023-02-09T08:14:48.210Z,64.35
2023-02-09T08:17:31.577Z,64.46
2023-02-09T08:19:55.664Z,63.99
2023-02-09T08:22:17.297Z,63.27
2023-02-09T08:24:38.928Z,63.94
2023-02-09T08:27:00.410Z,63.43
2023-02-09T08:29:21.862Z,63.83
2023-02-09T08:31:43.430Z,63.64
2023-02-09T08:34:04.884Z,63.97
2023-02-09T08:36:26.321Z,64.27
2023-02-09T08:38:50.648Z,63.77
2023-02-09T08:41:14.511Z,63.39
2023-02-09T08:43:36.381Z,63.65
2023-02-09T08:46:07.173Z,63.25
2023-02-09T08:48:31.655Z,64.02
2023-02-09T08:50:53.098Z,64.90
2023-02-09T08:53:14.558Z,63.88
2023-02-09T08:55:38.389Z,64.29
2023-02-09T08:58:00.125Z,64.06
2023-02-09T09:00:21.815Z,63.94
2023-02-09T09:02:43.244Z,63.67
2023-02-09T09:05:04.989Z,63.25
2023-02-09T09:07:26.540Z,61.51
2023-02-09T09:09:48.137Z,61.94
2023-02-09T09:12:09.568Z,61.36
2023-02-09T09:14:31.828Z,60.07
2023-02-09T09:16:53.474Z,60.74
2023-02-09T09:19:15.081Z,60.37
2023-02-09T09:21:36.564Z,59.81
2023-02-09T09:23:57.996Z,59.00
2023-02-09T09:26:19.510Z,58.91
2023-02-09T09:28:40.975Z,58.95
2023-02-09T09:31:08.812Z,59.35
2023-02-09T09:33:30.307Z,58.93
2023-02-09T09:35:51.757Z,59.16
2023-02-09T09:38:13.173Z,59.30
2023-02-09T09:40:37.385Z,59.13
2023-02-09T09:43:01.796Z,58.79
2023-02-09T09:45:26.444Z,58.89
2023-02-09T09:47:48.460Z,58.75
2023-02-09T09:50:19.060Z,58.95
2023-02-09T09:52:44.790Z,58.96
2023-02-09T09:55:08.639Z,59.87
2023-02-09T09:57:32.130Z,60.27
2023-02-09T09:59:55.182Z,59.31
2023-02-09T10:02:29.988Z,59.06
2023-02-09T10:04:51.543Z,58.99
2023-02-09T10:07:20.413Z,59.35
2023-02-09T10:09:49.669Z,59.69
2023-02-09T10:12:32.217Z,58.01
2023-02-09T10:14:53.668Z,58.92
2023-02-09T10:17:15.153Z,58.17
2023-02-09T10:19:36.661Z,57.92
2023-02-09T10:21:58.398Z,57.72
2023-02-09T10:24:29.429Z,57.99
2023-02-09T10:27:10.793Z,57.92
2023-02-09T10:29:32.229Z,58.12
2023-02-09T10:32:11.537Z,57.25
2023-02-09T10:34:43.388Z,56.75
2023-02-09T10:37:35.644Z,56.25
2023-02-09T10:40:05.772Z,55.84
2023-02-09T10:42:31.514Z,56.47
2023-02-09T10:44:56.123Z,56.05
2023-02-09T10:47:20.628Z,57.03
2023-02-09T10:49:42.121Z,57.15
2023-02-09T10:52:14.247Z,56.47
2023-02-09T10:54:35.707Z,56.08
2023-02-09T10:56:57.396Z,56.55
2023-02-09T10:59:21.597Z,56.55
2023-02-09T11:01:44.813Z,56.30
2023-02-09T11:04:18.229Z,54.18
2023-02-09T11:06:50.274Z,55.38
2023-02-09T11:09:18.703Z,54.90
2023-02-09T11:11:41.650Z,54.73
2023-02-09T11:14:03.851Z,54.70
2023-02-09T11:16:40.470Z,53.71
2023-02-09T11:19:26.519Z,53.03
2023-02-09T11:22:01.285Z,53.81
2023-02-09T11:24:46.809Z,53.48
2023-02-09T11:27:47.112Z,54.18
2023-02-09T11:30:43.746Z,54.28
2023-02-09T11:33:30.290Z,52.91
2023-02-09T11:36:07.624Z,53.42
2023-02-09T11:38:40.064Z,52.07
2023-02-09T11:41:25.717Z,51.70
2023-02-09T11:43:49.306Z,51.58
2023-02-09T11:46:19.605Z,51.89
2023-02-09T11:48:46.350Z,51.38
2023-02-09T11:51:15.092Z,51.20
2023-02-09T11:53:52.037Z,52.62
2023-02-09T11:56:18.522Z,51.85
2023-02-09T11:59:04.975Z,52.46
2023-02-09T12:01:35.186Z,52.33
2023-02-09T12:04:18.216Z,52.70
2023-02-09T12:06:53.376Z,52.29
2023-02-09T12:09:42.469Z,52.44
2023-02-09T12:12:25.539Z,51.98
2023-02-09T12:15:25.482Z,52.34
2023-02-09T12:18:11.008Z,52.18
2023-02-09T12:20:38.691Z,51.73
2023-02-09T12:23:07.959Z,50.01
2023-02-09T12:25:48.010Z,51.21
2023-02-09T12:28:12.868Z,51.67
2023-02-09T12:30:40.151Z,51.74
2023-02-09T12:33:51.288Z,51.84
2023-02-09T12:36:12.769Z,51.58
2023-02-09T12:39:04.702Z,51.81
2023-02-09T12:41:49.434Z,51.51
2023-02-09T12:44:10.831Z,50.36
2023-02-09T12:46:53.108Z,49.48
2023-02-09T12:49:14.565Z,50.35
2023-02-09T12:51:35.934Z,49.83
2023-02-09T12:53:57.433Z,50.07
2023-02-09T12:56:21.894Z,50.05
2023-02-09T12:58:46.274Z,49.54
2023-02-09T13:01:08.025Z,49.60
2023-02-09T13:03:31.066Z,50.08
2023-02-09T13:05:58.588Z,49.08
2023-02-09T13:08:29.679Z,49.47
2023-02-09T13:10:51.037Z,49.22
2023-02-09T13:13:12.414Z,49.89
2023-02-09T13:15:48.504Z,48.86
2023-02-09T13:18:26.058Z,49.00
2023-02-09T13:21:04.262Z,48.52
2023-02-09T13:23:35.954Z,48.16
2023-02-09T13:26:18.524Z,48.80
2023-02-09T13:28:39.963Z,48.22
2023-02-09T13:31:02.584Z,48.26
2023-02-09T13:33:50.938Z,48.84
2023-02-09T13:36:29.738Z,48.59
2023-02-09T13:38:51.367Z,48.75
2023-02-09T13:41:26.416Z,48.38
2023-02-09T13:43:48.235Z,48.06
2023-02-09T13:46:24.438Z,47.70
2023-02-09T13:48:46.012Z,46.95
2023-02-09T13:51:16.813Z,47.42
2023-02-09T13:53:38.305Z,46.40
2023-02-09T13:56:00.464Z,47.39
2023-02-09T13:58:28.948Z,47.19
2023-02-09T14:01:05.211Z,46.04
2023-02-09T14:03:29.930Z,46.36
2023-02-09T14:06:09.204Z,46.40
2023-02-09T14:08:32.573Z,45.43
2023-02-09T14:11:42.723Z,46.23
2023-02-09T14:14:10.639Z,45.45
2023-02-09T14:16:44.568Z,45.04
2023-02-09T14:19:32.291Z,45.60
2023-02-09T14:21:54.305Z,46.59
2023-02-09T14:24:20.281Z,47.34
2023-02-09T14:26:59.955Z,47.29
2023-02-09T14:29:45.705Z,46.87
2023-02-09T14:32:40.297Z,47.78
2023-02-09T14:35:19.581Z,48.83
2023-02-09T14:37:42.392Z,48.44
2023-02-09T14:40:06.015Z,48.28
2023-02-09T14:42:29.415Z,47.85
2023-02-09T14:45:01.920Z,46.94
2023-02-09T14:47:35.382Z,47.03
2023-02-09T14:49:58.563Z,47.96
2023-02-09T14:52:23.680Z,46.78
2023-02-09T14:54:50.624Z,46.64
2023-02-09T14:57:12.698Z,48.12
2023-02-09T14:59:34.150Z,47.40
2023-02-09T15:01:55.784Z,47.18
2023-02-09T15:04:17.261Z,47.25
2023-02-09T15:06:41.820Z,47.77
2023-02-09T15:09:05.265Z,48.06
2023-02-09T15:11:45.167Z,48.29
2023-02-09T15:14:09.680Z,48.14
2023-02-09T15:16:31.962Z,48.11
2023-02-09T15:18:53.473Z,48.72
2023-02-09T15:21:14.882Z,49.08
2023-02-09T15:23:36.323Z,49.04
2023-02-09T15:25:58.875Z,49.15
2023-02-09T15:28:29.847Z,49.60
2023-02-09T15:30:51.420Z,49.37
2023-02-09T15:33:13.273Z,49.16
2023-02-09T15:35:34.773Z,49.26
2023-02-09T15:37:59.645Z,48.54
2023-02-09T15:40:44.724Z,48.79
2023-02-09T15:43:33.006Z,48.48
2023-02-09T15:46:13.125Z,48.26
2023-02-09T15:48:34.710Z,48.85
2023-02-09T15:50:56.454Z,48.39
2023-02-09T15:53:19.216Z,49.09
2023-02-09T15:55:42.922Z,49.66
2023-02-09T15:58:11.512Z,50.42
2023-02-09T16:00:32.965Z,50.41
2023-02-09T16:02:56.616Z,50.18
2023-02-09T16:05:18.500Z,49.63
2023-02-09T16:07:40.035Z,50.91
2023-02-09T16:10:01.627Z,50.86
2023-02-09T16:12:23.047Z,51.05
2023-02-09T16:14:44.528Z,51.50
2023-02-09T16:17:07.687Z,50.73
2023-02-09T16:19:29.205Z,50.71
2023-02-09T16:21:56.796Z,51.22
2023-02-09T16:24:26.520Z,51.24
2023-02-09T16:26:48.543Z,51.72
2023-02-09T16:29:12.709Z,51.81
2023-02-09T16:31:34.243Z,52.14
2023-02-09T16:33:56.836Z,52.28
2023-02-09T16:36:21.312Z,52.65
2023-02-09T16:38:43.627Z,52.76
2023-02-09T16:41:05.211Z,53.76
2023-02-09T16:43:26.751Z,53.54
2023-02-09T16:46:01.425Z,55.08
2023-02-09T16:48:28.089Z,55.13
2023-02-09T16:50:53.267Z,55.34
2023-02-09T16:53:18.086Z,55.17
2023-02-09T16:55:42.066Z,54.92
2023-02-09T16:58:05.076Z,55.05
2023-02-09T17:00:33.240Z,54.87
2023-02-09T17:03:00.189Z,54.87
2023-02-09T17:05:36.110Z,55.38
2023-02-09T17:08:09.848Z,55.19
2023-02-09T17:10:33.609Z,55.99
2023-02-09T17:12:55.266Z,55.62
2023-02-09T17:15:28.837Z,55.48
2023-02-09T17:17:54.969Z,55.69
2023-02-09T17:20:20.446Z,55.77
2023-02-09T17:22:42.642Z,55.81
2023-02-09T17:25:04.398Z,56.53
2023-02-09T17:27:25.928Z,56.42
2023-02-09T17:29:47.374Z,56.48
2023-02-09T17:32:13.479Z,56.63
2023-02-09T17:34:34.939Z,56.44
2023-02-09T17:36:57.561Z,56.30
2023-02-09T17:39:19.300Z,56.60
2023-02-09T17:41:46.511Z,57.17
2023-02-09T17:44:32.025Z,57.31
2023-02-09T17:47:03.312Z,57.24
2023-02-09T17:49:24.946Z,57.67
2023-02-09T17:51:47.495Z,57.34
2023-02-09T17:54:15.210Z,57.73
2023-02-09T17:56:36.718Z,57.59
2023-02-09T17:59:02.941Z,57.73
2023-02-09T18:01:31.003Z,57.87
2023-02-09T18:03:54.060Z,57.70
2023-02-09T18:06:19.754Z,58.04
2023-02-09T18:08:41.331Z,60.03
2023-02-09T18:11:02.806Z,60.88
2023-02-09T18:13:25.785Z,60.66
2023-02-09T18:15:48.769Z,61.48
2023-02-09T18:18:10.735Z,62.91
2023-02-09T18:20:34.110Z,61.93
2023-02-09T18:22:56.815Z,61.62
2023-02-09T18:25:22.346Z,61.69
2023-02-09T18:27:43.797Z,61.75
2023-02-09T18:30:05.797Z,60.93
2023-02-09T18:32:27.237Z,61.63
2023-02-09T18:34:48.676Z,61.23
2023-02-09T18:37:10.127Z,60.99
2023-02-09T18:39:35.752Z,60.74
2023-02-09T18:41:57.473Z,60.64
2023-02-09T18:44:18.950Z,61.03
2023-02-09T18:46:42.836Z,60.97
2023-02-09T18:49:04.336Z,61.05
2023-02-09T18:51:25.812Z,61.17
2023-02-09T18:53:48.388Z,60.83
2023-02-09T18:56:19.976Z,60.99
2023-02-09T18:58:41.448Z,61.00
2023-02-09T19:01:02.924Z,61.09
2023-02-09T19:03:24.475Z,60.38
2023-02-09T19:05:47.221Z,60.55
2023-02-09T19:08:10.102Z,60.39
2023-02-09T19:10:33.175Z,61.84
2023-02-09T19:12:55.438Z,63.06
2023-02-09T19:15:17.836Z,63.77
2023-02-09T19:17:40.501Z,62.77
2023-02-09T19:20:04.268Z,62.57
2023-02-09T19:22:25.875Z,62.45
2023-02-09T19:24:48.515Z,61.89
2023-02-09T19:27:11.461Z,62.04
2023-02-09T19:29:33.835Z,61.96
2023-02-09T19:31:55.912Z,61.85
2023-02-09T19:34:17.403Z,61.25
2023-02-09T19:36:38.863Z,61.65
2023-02-09T19:39:01.058Z,61.38
2023-02-09T19:41:23.662Z,61.22
2023-02-09T19:43:45.184Z,61.30
2023-02-09T19:46:08.131Z,61.67
2023-02-09T19:48:29.753Z,62.12
2023-02-09T19:50:55.786Z,61.86
2023-02-09T19:53:17.225Z,61.93
2023-02-09T19:55:38.766Z,61.82
2023-02-09T19:58:00.280Z,62.22
2023-02-09T20:00:22.052Z,61.93
2023-02-09T20:02:44.518Z,61.89
2023-02-09T20:05:06.602Z,61.93
2023-02-09T20:07:28.091Z,61.98
2023-02-09T20:09:52.295Z,61.71
2023-02-09T20:12:14.441Z,61.89
2023-02-09T20:14:35.890Z,62.39
2023-02-09T20:16:57.531Z,62.25
2023-02-09T20:19:19.146Z,62.25
2023-02-09T20:21:40.617Z,62.17
2023-02-09T20:24:06.618Z,62.42
2023-02-09T20:26:29.890Z,62.40
2023-02-09T20:28:51.326Z,62.27
2023-02-09T20:31:14.972Z,62.37
2023-02-09T20:33:39.051Z,63.88
2023-02-09T20:36:03.529Z,64.41
2023-02-09T20:38:25.190Z,63.93
2023-02-09T20:40:46.768Z,64.40
2023-02-09T20:43:29.315Z,63.70
2023-02-09T20:46:09.167Z,63.03
2023-02-09T20:48:30.710Z,63.61
2023-02-09T20:50:52.156Z,62.98
2023-02-09T20:53:13.609Z,63.09
2023-02-09T20:55:35.089Z,63.75
2023-02-09T20:57:56.612Z,64.02
2023-02-09T21:00:18.294Z,64.15
2023-02-09T21:02:39.801Z,63.80
2023-02-09T21:05:01.266Z,64.81
2023-02-09T21:07:22.892Z,65.09
2023-02-09T21:09:44.295Z,64.54
2023-02-09T21:12:05.833Z,64.07
2023-02-09T21:14:41.268Z,64.23
2023-02-09T21:17:04.108Z,63.86
2023-02-09T21:19:25.570Z,65.22
2023-02-09T21:21:47.097Z,64.61
2023-02-09T21:24:08.546Z,65.01
2023-02-09T21:26:30.134Z,64.41
2023-02-09T21:28:56.111Z,64.41
2023-02-09T21:31:23.522Z,66.20
2023-02-09T21:33:44.993Z,66.90
2023-02-09T21:36:07.746Z,65.52
2023-02-09T21:38:29.465Z,65.39
2023-02-09T21:40:50.928Z,65.88
2023-02-09T21:43:12.472Z,65.77
2023-02-09T21:45:34.260Z,64.78
2023-02-09T21:47:55.841Z,65.57
2023-02-09T21:50:17.465Z,65.42
2023-02-09T21:52:38.979Z,64.92
2023-02-09T21:55:01.341Z,64.76
2023-02-09T21:57:22.847Z,64.35
2023-02-09T21:59:44.375Z,65.50
2023-02-09T22:02:05.908Z,65.08
2023-02-09T22:04:27.426Z,65.17
2023-02-09T22:06:49.234Z,64.36
2023-02-09T22:09:10.732Z,65.60
2023-02-09T22:11:32.335Z,65.24
2023-02-09T22:13:53.934Z,64.43
2023-02-09T22:16:21.184Z,64.62
2023-02-09T22:18:42.636Z,65.44
2023-02-09T22:21:07.753Z,65.99
2023-02-09T22:23:29.224Z,65.36
2023-02-09T22:25:50.643Z,65.86
2023-02-09T22:28:12.204Z,66.14
2023-02-09T22:30:34.154Z,66.92
2023-02-09T22:32:57.348Z,66.95
2023-02-09T22:35:18.889Z,66.51
2023-02-09T22:37:40.325Z,66.15
2023-02-09T22:40:01.792Z,67.37
2023-02-09T22:42:23.255Z,67.31
2023-02-09T22:44:44.675Z,67.28
2023-02-09T22:47:06.174Z,68.73
2023-02-09T22:49:27.632Z,68.47
2023-02-09T22:51:49.930Z,68.80
2023-02-09T22:54:13.954Z,67.20
2023-02-09T22:56:35.552Z,67.93
2023-02-09T22:58:58.738Z,66.80
2023-02-09T23:01:20.435Z,67.36
2023-02-09T23:03:42.011Z,66.95
2023-02-09T23:06:05.303Z,66.61
2023-02-09T23:08:26.806Z,67.49
2023-02-09T23:10:48.748Z,67.70
2023-02-09T23:13:10.227Z,67.58
2023-02-09T23:15:31.671Z,66.69
2023-02-09T23:17:53.176Z,66.79
2023-02-09T23:20:14.771Z,68.14
2023-02-09T23:22:36.205Z,67.98
2023-02-09T23:24:57.672Z,67.22
2023-02-09T23:27:19.410Z,66.76
2023-02-09T23:29:40.872Z,66.77
2023-02-09T23:32:02.438Z,66.92
2023-02-09T23:34:23.980Z,66.92
2023-02-09T23:36:46.243Z,67.03
2023-02-09T23:39:08.618Z,67.33
2023-02-09T23:41:30.651Z,67.43
2023-02-09T23:43:53.343Z,66.47
2023-02-09T23:46:17.969Z,66.43
2023-02-09T23:48:39.668Z,66.47
2023-02-09T23:51:03.276Z,66.58
2023-02-09T23:53:24.738Z,66.50
2023-02-09T23:55:51.467Z,66.25
2023-02-09T23:58:12.917Z,65.93
